Huy, Belgium
Current Conditions -  °F | °C
As of 6:50 AM on Wednesday 28 Jan 2015 (Local Time) from EBLG Reporting Station
Broken Clouds Broken Clouds  
Wind Chill: 31°   Ceiling: 1000
Heat Index: 39°   Visibility: 6mi
Dew Point: 36°   Wind: 14mph
Humidity: 87%   Direction: 220°SW
Pressure: 30"   Gusts: NA
Location:  50.52°N, 5.23°E
Report Text: EBLG 280550Z 22012KT 9999 BKN010 BKN029 04/02 Q1016 NOSIG
Loading
Personal Weather Stations






























Interactive Weather Map New forecast layout! Learn more

10-Day Weather Forecast

Advertisements
Track Severe Weather on mobile